METAR Data
IDs: Format: Raw Decoded Include TAF

Data at: 1635 UTC 03 Jul 2020

LTAF 031620Z 21007KT CAVOK 30/20 Q1003 NOSIG RMK RWY23 22007KT